Kingston, Louisiana
Current Conditions -  °F | °C
As of 2:56 AM on Wednesday 26 Nov 2014 (Local Time) from KSHV Reporting Station
Scattered Clouds Scattered Clouds  
Wind Chill: 40°   Ceiling: Unl
Heat Index: 44°   Visibility: 10mi
Dew Point: 34°   Wind: 8mph
Humidity: 68%   Direction: 210°SSW
Pressure: 30.14"   Gusts: NA
Location:  32.117°N, 93.8044°W
Report Text: KSHV 260856Z 21007KT 10SM SCT250 07/01 A3014 RMK AO2 SLP203 T00670011 55006
Loading
Personal Weather Stations






























Interactive Weather Map New forecast layout! Learn more

10-Day Weather Forecast

Advertisements
Track Severe Weather on mobile